Main page
METAR-TAF:

METAR-TAF

Airports :

Rodez–Aveyron Airport

Rodez, France

latitude: 44-24N, longitude: 002-29E, elevation: 581 m

Current weather observation

The report was made 24 minutes ago, at 19:00 UTC
Wind 2 kt from variable directions
Temperature 14°C
Humidity 82%
Pressure 1017 hPa
Visibility 10 km or more
no clouds below 1500 m and no cumulonimbus

METAR: LFCR 171900Z AUTO VRB02KT CAVOK 14/11 Q1017 NOSIG

Time: 21:24 (19:24 UTC)

Forecast

The report was made 2 hours and 24 minutes ago, at 17:00 UTC
Forecast valid from 17 at 18 UTC to 18 at 18 UTC
Wind 3 kt from variable directions
Visibility 10 km or more
no clouds below 1500 m and no cumulonimbus
Probability 30% :
Temporary
from 18 at 04 UTC to 18 at 09 UTC
Visibility: 3000 m
Broken clouds at a height of 1300 ft
Broken clouds at a height of 8000 ft
rain

TAF: LFCR 171700Z 1718/1818 VRB03KT CAVOK PROB30 TEMPO 1804/1809 3000 RA BKN013 BKN080

Weather observations and forecasts of more than 4000 airports (METAR and TAF reports).

The available stations are represented by yellow and red dots on the map.

Hover mouse over dot to see the name of the station.

Then click to see weather observations and forecasts.

To change the map : click on the green buttons with a black cross to zoom in, on the green button with a dash to zoom out, or on the green arrows for adjacent maps.


METAR-TAF: